Time;durP1;ratioP1;P1;durP2;ratioP2;P2;SDS_P1;SDS_P2;PMS_P1;PMS_P2;Temp;Humidity;BMP_temperature;BMP_pressure;BME280_temperature;BME280_humidity;BME280_pressure;Samples;Min_cycle;Max_cycle;Signal;HPM_P1;HPM_P2
2022/04/18 00:01:34;;;;;;;0.93;0.90;;;;;;;;;;4434039;32;20228;-55
2022/04/18 00:04:00;;;;;;;1.20;1.10;;;;;;;;;;4434134;32;20290;-55
2022/04/18 00:06:25;;;;;;;2.70;1.60;;;;;;;;;;4424800;32;20208;-56
2022/04/18 00:08:50;;;;;;;1.20;1.10;;;;;;;;;;4418805;32;20224;-56
2022/04/18 00:11:16;;;;;;;2.17;1.03;;;;;;;;;;4418665;32;20213;-56
2022/04/18 00:13:41;;;;;;;1.23;1.07;;;;;;;;;;4417518;32;20660;-56
2022/04/18 00:16:07;;;;;;;2.00;1.50;;;;;;;;;;4418657;32;20247;-56
2022/04/18 00:18:32;;;;;;;2.60;1.57;;;;;;;;;;4417563;32;20240;-56
2022/04/18 00:20:58;;;;;;;2.37;1.53;;;;;;;;;;4406614;32;20445;-56
2022/04/18 00:23:23;;;;;;;4.77;2.23;;;;;;;;;;4418134;32;20347;-55
2022/04/18 00:25:48;;;;;;;3.63;2.00;;;;;;;;;;4429021;32;20446;-55
2022/04/18 00:28:15;;;;;;;1.73;1.33;;;;;;;;;;4425854;32;20240;-56
2022/04/18 00:30:41;;;;;;;1.43;1.17;;;;;;;;;;4434082;32;20210;-55
2022/04/18 00:33:09;;;;;;;2.23;1.57;;;;;;;;;;4433569;32;20212;-55
2022/04/18 00:35:35;;;;;;;1.90;1.57;;;;;;;;;;4433635;32;20668;-54
2022/04/18 00:38:00;;;;;;;1.90;1.33;;;;;;;;;;4433592;32;20240;-56
2022/04/18 00:40:25;;;;;;;1.30;1.20;;;;;;;;;;4433574;32;20263;-55
2022/04/18 00:42:51;;;;;;;1.53;1.20;;;;;;;;;;4433629;32;20267;-55
2022/04/18 00:45:16;;;;;;;1.97;1.23;;;;;;;;;;4432862;32;20275;-55
2022/04/18 00:47:42;;;;;;;1.20;1.10;;;;;;;;;;4442080;32;20256;-55
2022/04/18 00:50:07;;;;;;;3.07;1.27;;;;;;;;;;4449193;32;20252;-54
2022/04/18 00:52:35;;;;;;;1.57;1.10;;;;;;;;;;4448517;32;20298;-55
2022/04/18 00:55:02;;;;;;;1.27;1.03;;;;;;;;;;4449202;32;20294;-55
2022/04/18 00:57:28;;;;;;;2.00;1.50;;;;;;;;;;4445584;32;20212;-55
2022/04/18 00:59:54;;;;;;;2.90;1.93;;;;;;;;;;4434253;32;20298;-55
2022/04/18 01:02:19;;;;;;;1.83;1.30;;;;;;;;;;4432797;32;20594;-55
2022/04/18 01:04:45;;;;;;;1.73;1.60;;;;;;;;;;4433188;32;20295;-55
2022/04/18 01:07:12;;;;;;;2.00;1.30;;;;;;;;;;4432534;32;20325;-55
2022/04/18 01:09:38;;;;;;;1.70;1.40;;;;;;;;;;4433074;32;20460;-55
2022/04/18 01:12:04;;;;;;;1.50;1.40;;;;;;;;;;4432549;32;20326;-55
2022/04/18 01:14:30;;;;;;;1.70;1.33;;;;;;;;;;4432632;32;20813;-55
2022/04/18 01:16:55;;;;;;;1.23;1.13;;;;;;;;;;4433298;32;20201;-55
2022/04/18 01:19:20;;;;;;;1.50;1.10;;;;;;;;;;4433240;32;20259;-55
2022/04/18 01:21:46;;;;;;;1.17;1.07;;;;;;;;;;4432051;32;20270;-56
2022/04/18 01:29:41;;;;;;;0.93;0.93;;;;;;;;;;4432916;32;20254;-55
2022/04/18 01:32:07;;;;;;;4.07;1.63;;;;;;;;;;4419967;32;20260;-55
2022/04/18 01:34:32;;;;;;;2.23;1.67;;;;;;;;;;4432838;32;20329;-56
2022/04/18 01:36:58;;;;;;;3.13;1.53;;;;;;;;;;4432546;32;20559;-55
2022/04/18 01:39:24;;;;;;;3.60;1.50;;;;;;;;;;4432858;32;20560;-55
2022/04/18 01:41:50;;;;;;;1.67;1.20;;;;;;;;;;4418753;32;20495;-55
2022/04/18 01:44:16;;;;;;;3.63;1.33;;;;;;;;;;4433005;32;20281;-55
2022/04/18 01:46:41;;;;;;;3.83;1.70;;;;;;;;;;4432379;32;20216;-55
2022/04/18 01:49:07;;;;;;;2.07;1.40;;;;;;;;;;4432603;32;20309;-54
2022/04/18 01:51:32;;;;;;;2.37;1.70;;;;;;;;;;4432320;32;20285;-55
2022/04/18 01:53:57;;;;;;;2.47;1.60;;;;;;;;;;4432832;32;20240;-56
2022/04/18 01:56:23;;;;;;;3.07;1.57;;;;;;;;;;4432583;32;20212;-55
2022/04/18 01:58:48;;;;;;;2.57;1.40;;;;;;;;;;4432673;32;20372;-57
2022/04/18 02:01:15;;;;;;;2.50;1.57;;;;;;;;;;4432227;32;20212;-54
2022/04/18 02:03:43;;;;;;;2.37;1.70;;;;;;;;;;4442872;32;20255;-55
2022/04/18 02:06:10;;;;;;;2.07;1.70;;;;;;;;;;4425660;32;20758;-55
2022/04/18 02:08:35;;;;;;;2.57;1.50;;;;;;;;;;4416983;32;20221;-55
2022/04/18 02:11:01;;;;;;;3.27;1.70;;;;;;;;;;4416982;32;20236;-54
2022/04/18 02:13:28;;;;;;;4.17;1.67;;;;;;;;;;4415931;32;20311;-55
2022/04/18 02:15:55;;;;;;;2.97;1.67;;;;;;;;;;4416626;32;20213;-54
2022/04/18 02:18:21;;;;;;;1.37;1.27;;;;;;;;;;4413844;32;20654;-55
2022/04/18 02:20:46;;;;;;;3.37;1.80;;;;;;;;;;4432035;32;20306;-55
2022/04/18 02:23:11;;;;;;;1.47;1.37;;;;;;;;;;4431728;32;20249;-55
2022/04/18 02:25:37;;;;;;;1.97;1.30;;;;;;;;;;4432021;32;20234;-55
2022/04/18 02:28:03;;;;;;;1.93;1.37;;;;;;;;;;4432028;32;20264;-54
2022/04/18 02:30:28;;;;;;;1.70;1.37;;;;;;;;;;4432387;32;20716;-55
2022/04/18 02:32:53;;;;;;;1.27;1.17;;;;;;;;;;4417939;32;20277;-55
2022/04/18 02:35:22;;;;;;;1.67;1.30;;;;;;;;;;4432136;32;20682;-55
2022/04/18 02:37:48;;;;;;;1.60;1.37;;;;;;;;;;4431866;32;20217;-56
2022/04/18 02:40:13;;;;;;;1.30;1.20;;;;;;;;;;4431983;32;20333;-56
2022/04/18 02:42:42;;;;;;;1.63;1.40;;;;;;;;;;4417927;32;21424;-56
2022/04/18 02:45:08;;;;;;;1.57;1.10;;;;;;;;;;4418100;32;20258;-55
2022/04/18 02:47:34;;;;;;;1.87;1.53;;;;;;;;;;4431138;32;20248;-56
2022/04/18 02:49:59;;;;;;;3.17;1.87;;;;;;;;;;4418061;32;20228;-54
2022/04/18 02:52:25;;;;;;;3.63;1.93;;;;;;;;;;4431476;32;20262;-54
2022/04/18 02:54:50;;;;;;;2.37;1.80;;;;;;;;;;4417998;32;20338;-55
2022/04/18 02:57:15;;;;;;;2.07;1.63;;;;;;;;;;4431762;32;20258;-54
2022/04/18 02:59:41;;;;;;;3.10;2.00;;;;;;;;;;4432139;32;20299;-55
2022/04/18 03:02:07;;;;;;;2.30;2.00;;;;;;;;;;4418029;32;20656;-55
2022/04/18 03:04:33;;;;;;;3.50;2.13;;;;;;;;;;4445627;32;20286;-56
2022/04/18 03:06:58;;;;;;;5.50;2.53;;;;;;;;;;4417804;32;20678;-55
2022/04/18 03:09:24;;;;;;;7.97;2.57;;;;;;;;;;4432068;32;20228;-55
2022/04/18 03:11:49;;;;;;;3.30;2.40;;;;;;;;;;4431737;32;20287;-55
2022/04/18 03:14:15;;;;;;;7.73;3.63;;;;;;;;;;4431668;32;20596;-55
2022/04/18 03:16:41;;;;;;;4.53;3.13;;;;;;;;;;4431765;32;20507;-55
2022/04/18 03:19:06;;;;;;;3.77;2.83;;;;;;;;;;4431968;32;20255;-55
2022/04/18 03:21:32;;;;;;;8.67;3.70;;;;;;;;;;4431441;32;20288;-54
2022/04/18 03:23:58;;;;;;;6.23;3.57;;;;;;;;;;4431669;32;20317;-55
2022/04/18 03:26:23;;;;;;;3.53;2.37;;;;;;;;;;4417504;32;20578;-55
2022/04/18 03:28:49;;;;;;;5.60;3.17;;;;;;;;;;4432115;32;20259;-55
2022/04/18 03:31:14;;;;;;;6.07;3.40;;;;;;;;;;4431413;32;20216;-55
2022/04/18 03:33:40;;;;;;;6.47;3.83;;;;;;;;;;4432685;32;20294;-56
2022/04/18 03:41:34;;;;;;;5.50;2.87;;;;;;;;;;4434310;32;20662;-55
2022/04/18 03:43:59;;;;;;;5.20;2.17;;;;;;;;;;4434811;32;20240;-56
2022/04/18 03:46:25;;;;;;;1.90;1.70;;;;;;;;;;4419952;32;20300;-55
2022/04/18 03:48:50;;;;;;;1.53;1.40;;;;;;;;;;4433586;32;20616;-56
2022/04/18 03:51:16;;;;;;;1.73;1.53;;;;;;;;;;4420120;32;20256;-56
2022/04/18 03:53:41;;;;;;;1.43;1.30;;;;;;;;;;4434542;32;20220;-54
2022/04/18 03:56:06;;;;;;;1.83;1.60;;;;;;;;;;4434426;32;20237;-55
2022/04/18 03:58:32;;;;;;;3.50;2.20;;;;;;;;;;4433705;32;20289;-55
2022/04/18 04:00:58;;;;;;;6.17;3.43;;;;;;;;;;4434064;32;20212;-54
2022/04/18 04:03:24;;;;;;;6.97;3.30;;;;;;;;;;4434206;32;20244;-55
2022/04/18 04:05:49;;;;;;;3.27;2.50;;;;;;;;;;4430787;32;20245;-55
2022/04/18 04:08:18;;;;;;;4.87;3.60;;;;;;;;;;4419007;32;20294;-55
2022/04/18 04:10:43;;;;;;;6.13;3.40;;;;;;;;;;4418565;32;20247;-56
2022/04/18 04:13:09;;;;;;;4.47;2.53;;;;;;;;;;4418659;32;20296;-56
2022/04/18 04:15:34;;;;;;;4.60;2.13;;;;;;;;;;4418483;32;20331;-56
2022/04/18 04:17:59;;;;;;;1.73;1.63;;;;;;;;;;4427195;32;20309;-55
2022/04/18 04:20:25;;;;;;;2.30;1.70;;;;;;;;;;4433717;32;20227;-55
2022/04/18 04:22:51;;;;;;;2.57;2.33;;;;;;;;;;4433847;32;20691;-56
2022/04/18 04:25:17;;;;;;;4.33;2.60;;;;;;;;;;4433975;32;20209;-56
2022/04/18 04:27:43;;;;;;;3.10;2.10;;;;;;;;;;4433795;32;20325;-55
2022/04/18 04:30:09;;;;;;;2.77;2.27;;;;;;;;;;4433802;32;20302;-55
2022/04/18 04:32:34;;;;;;;2.13;1.93;;;;;;;;;;4419432;32;20255;-55
2022/04/18 04:35:00;;;;;;;1.80;1.60;;;;;;;;;;4433604;32;20213;-55
2022/04/18 04:37:25;;;;;;;2.70;2.13;;;;;;;;;;4433239;32;20534;-55
2022/04/18 04:39:51;;;;;;;4.60;3.33;;;;;;;;;;4433631;32;20208;-56
2022/04/18 04:42:17;;;;;;;5.30;3.03;;;;;;;;;;4432958;32;20324;-56
2022/04/18 04:44:43;;;;;;;5.17;2.50;;;;;;;;;;4432864;32;20553;-56
2022/04/18 04:47:09;;;;;;;3.33;2.27;;;;;;;;;;4432794;32;20284;-57
2022/04/18 04:49:34;;;;;;;3.63;2.63;;;;;;;;;;4432347;32;20212;-55
2022/04/18 04:51:59;;;;;;;5.60;3.50;;;;;;;;;;4432617;32;20213;-56
2022/04/18 04:54:25;;;;;;;4.83;3.30;;;;;;;;;;4432848;32;20307;-56
2022/04/18 04:56:50;;;;;;;3.20;2.40;;;;;;;;;;4433533;32;20233;-56
2022/04/18 04:59:16;;;;;;;3.47;2.60;;;;;;;;;;4419124;32;20232;-54
2022/04/18 05:01:41;;;;;;;4.47;2.53;;;;;;;;;;4418976;32;20350;-55
2022/04/18 05:04:07;;;;;;;6.97;3.07;;;;;;;;;;4445628;32;20299;-55
2022/04/18 05:06:32;;;;;;;10.27;3.77;;;;;;;;;;4415529;32;20236;-55
2022/04/18 05:08:58;;;;;;;6.80;4.23;;;;;;;;;;4417390;32;20228;-55
2022/04/18 05:11:23;;;;;;;5.17;4.00;;;;;;;;;;4403257;32;20271;-55
2022/04/18 05:13:49;;;;;;;3.63;2.60;;;;;;;;;;4415879;32;20799;-55
2022/04/18 05:16:14;;;;;;;5.07;2.67;;;;;;;;;;4417179;32;20205;-56
2022/04/18 05:18:39;;;;;;;2.97;2.03;;;;;;;;;;4430305;32;20259;-54
2022/04/18 05:21:05;;;;;;;3.57;2.40;;;;;;;;;;4432604;32;20235;-55
2022/04/18 05:23:31;;;;;;;3.43;2.50;;;;;;;;;;4432304;32;20276;-55
2022/04/18 05:25:56;;;;;;;4.07;2.27;;;;;;;;;;4432574;32;20304;-56
2022/04/18 05:28:22;;;;;;;2.73;2.10;;;;;;;;;;4432033;32;20291;-56
2022/04/18 05:30:48;;;;;;;2.83;2.23;;;;;;;;;;4431770;32;20641;-57
2022/04/18 05:33:13;;;;;;;5.73;3.77;;;;;;;;;;4416311;32;20650;-56
2022/04/18 05:35:39;;;;;;;29.37;16.10;;;;;;;;;;4430512;32;20334;-56
2022/04/18 05:38:05;;;;;;;19.33;10.23;;;;;;;;;;4430642;32;20267;-55
2022/04/18 05:40:31;;;;;;;3.50;3.20;;;;;;;;;;4430206;32;20274;-55
2022/04/18 05:42:57;;;;;;;4.47;2.80;;;;;;;;;;4430346;32;20320;-57
2022/04/18 05:45:23;;;;;;;4.33;3.70;;;;;;;;;;4431116;32;20244;-57
2022/04/18 05:47:48;;;;;;;4.90;3.60;;;;;;;;;;4432529;32;20309;-56
2022/04/18 05:50:13;;;;;;;8.70;3.60;;;;;;;;;;4428954;32;20670;-56
2022/04/18 05:52:39;;;;;;;3.50;3.10;;;;;;;;;;4431201;32;20314;-55
2022/04/18 05:55:05;;;;;;;26.00;8.97;;;;;;;;;;4418555;32;20322;-56
2022/04/18 05:57:30;;;;;;;4.47;3.17;;;;;;;;;;4432102;32;20249;-56
2022/04/18 05:59:55;;;;;;;6.20;5.60;;;;;;;;;;4418335;32;20374;-56
2022/04/18 06:02:21;;;;;;;5.93;4.40;;;;;;;;;;4419890;32;20454;-56
2022/04/18 06:04:47;;;;;;;5.60;3.97;;;;;;;;;;4443455;32;20358;-55
2022/04/18 06:07:12;;;;;;;5.57;2.97;;;;;;;;;;4431163;32;20495;-56
2022/04/18 06:09:38;;;;;;;4.13;2.47;;;;;;;;;;4417862;32;20322;-56
2022/04/18 06:12:03;;;;;;;6.90;3.97;;;;;;;;;;4431802;32;20236;-57
2022/04/18 06:14:29;;;;;;;7.90;4.17;;;;;;;;;;4431586;32;20747;-57
2022/04/18 06:16:54;;;;;;;4.43;3.83;;;;;;;;;;4432016;32;20592;-55
2022/04/18 06:19:20;;;;;;;6.83;4.03;;;;;;;;;;4432282;32;20672;-56
2022/04/18 06:21:48;;;;;;;4.23;3.33;;;;;;;;;;4431232;32;20212;-55
2022/04/18 06:24:13;;;;;;;7.23;2.97;;;;;;;;;;4432055;32;20237;-56
2022/04/18 06:26:39;;;;;;;2.33;2.13;;;;;;;;;;4430440;32;20370;-56
2022/04/18 06:29:04;;;;;;;3.40;1.73;;;;;;;;;;4431643;32;20216;-56
2022/04/18 06:31:29;;;;;;;3.60;3.00;;;;;;;;;;4424191;32;20299;-56
2022/04/18 06:33:55;;;;;;;9.47;8.00;;;;;;;;;;4426807;32;20233;-57
2022/04/18 06:36:20;;;;;;;5.97;2.80;;;;;;;;;;4430333;32;20634;-57
2022/04/18 06:38:46;;;;;;;2.47;1.93;;;;;;;;;;4426360;32;20273;-56
2022/04/18 06:41:12;;;;;;;7.23;2.90;;;;;;;;;;4431712;32;20217;-57
2022/04/18 06:43:37;;;;;;;7.03;4.17;;;;;;;;;;4430569;32;20697;-57
2022/04/18 06:46:03;;;;;;;2.83;2.33;;;;;;;;;;4429998;32;20268;-56
2022/04/18 06:48:28;;;;;;;2.53;2.27;;;;;;;;;;4429940;32;20330;-56
2022/04/18 06:50:53;;;;;;;3.63;2.67;;;;;;;;;;4429713;32;20354;-56
2022/04/18 06:53:19;;;;;;;7.70;4.60;;;;;;;;;;4430053;32;20422;-55
2022/04/18 06:58:29;;;;;;;5.90;3.40;;;;;;;;;;4429958;32;20258;-56
2022/04/18 07:00:54;;;;;;;7.70;3.90;;;;;;;;;;4429038;32;20220;-56
2022/04/18 07:03:20;;;;;;;6.17;3.57;;;;;;;;;;4429343;32;20285;-56
2022/04/18 07:05:45;;;;;;;3.93;3.10;;;;;;;;;;4429298;32;20208;-56
2022/04/18 07:08:11;;;;;;;4.83;3.33;;;;;;;;;;4430374;32;20289;-56
2022/04/18 07:10:36;;;;;;;3.70;2.90;;;;;;;;;;4433025;32;20358;-56
2022/04/18 07:13:02;;;;;;;3.53;3.23;;;;;;;;;;4431196;32;20389;-57
2022/04/18 07:15:27;;;;;;;10.00;4.27;;;;;;;;;;4431622;32;20386;-56
2022/04/18 07:17:52;;;;;;;9.77;5.47;;;;;;;;;;4431666;32;20228;-56
2022/04/18 07:20:18;;;;;;;3.70;2.50;;;;;;;;;;4418176;32;20346;-57
2022/04/18 07:22:44;;;;;;;5.47;3.00;;;;;;;;;;4432387;32;20312;-55
2022/04/18 07:25:10;;;;;;;4.00;3.27;;;;;;;;;;4433157;32;20355;-56
2022/04/18 07:27:36;;;;;;;9.87;2.73;;;;;;;;;;4432239;32;20254;-55
2022/04/18 07:30:02;;;;;;;3.50;2.87;;;;;;;;;;4432560;32;20396;-57
2022/04/18 07:32:28;;;;;;;5.93;3.77;;;;;;;;;;4432449;32;20443;-56
2022/04/18 07:34:53;;;;;;;7.43;5.17;;;;;;;;;;4433159;32;20331;-56
2022/04/18 07:37:20;;;;;;;7.80;3.73;;;;;;;;;;4418623;32;20739;-56
2022/04/18 07:39:45;;;;;;;4.33;3.13;;;;;;;;;;4418868;32;20308;-56
2022/04/18 07:42:11;;;;;;;16.53;4.33;;;;;;;;;;4432798;32;20319;-56
2022/04/18 07:44:36;;;;;;;10.27;6.37;;;;;;;;;;4418871;32;20959;-57
2022/04/18 07:47:02;;;;;;;14.43;5.70;;;;;;;;;;4432731;32;20342;-56
2022/04/18 07:49:28;;;;;;;8.07;5.33;;;;;;;;;;4418315;32;20236;-56
2022/04/18 07:51:54;;;;;;;6.13;3.23;;;;;;;;;;4417547;32;20221;-56
2022/04/18 07:54:20;;;;;;;4.93;3.17;;;;;;;;;;4432264;32;20266;-55
2022/04/18 07:56:46;;;;;;;7.67;4.93;;;;;;;;;;4431999;32;20234;-56
2022/04/18 07:59:12;;;;;;;8.17;4.57;;;;;;;;;;4432039;32;20316;-56
2022/04/18 08:01:38;;;;;;;6.20;4.37;;;;;;;;;;4431938;32;20733;-56
2022/04/18 08:04:04;;;;;;;3.77;3.00;;;;;;;;;;4431999;32;20378;-55
2022/04/18 08:06:30;;;;;;;10.63;5.37;;;;;;;;;;4418259;32;20232;-56
2022/04/18 08:08:56;;;;;;;4.23;3.40;;;;;;;;;;4418186;32;20516;-55
2022/04/18 08:11:22;;;;;;;8.50;5.60;;;;;;;;;;4432014;32;20334;-56
2022/04/18 08:13:49;;;;;;;4.77;2.73;;;;;;;;;;4432408;32;20236;-55
2022/04/18 08:16:14;;;;;;;11.63;6.07;;;;;;;;;;4431628;32;20213;-56
2022/04/18 08:18:44;;;;;;;8.47;5.60;;;;;;;;;;4431921;32;20256;-55
2022/04/18 08:21:11;;;;;;;8.30;4.13;;;;;;;;;;4431664;32;20561;-56
2022/04/18 08:23:37;;;;;;;9.67;6.27;;;;;;;;;;4431282;32;20312;-56
2022/04/18 08:26:04;;;;;;;4.37;3.13;;;;;;;;;;4431822;32;20287;-57
2022/04/18 08:28:30;;;;;;;3.07;1.93;;;;;;;;;;4431952;32;20609;-56
2022/04/18 08:30:56;;;;;;;16.43;11.63;;;;;;;;;;4431933;32;20693;-56
2022/04/18 08:33:23;;;;;;;15.87;9.00;;;;;;;;;;4417572;32;20376;-56
2022/04/18 08:35:49;;;;;;;5.37;4.00;;;;;;;;;;4431279;32;20209;-56
2022/04/18 08:38:14;;;;;;;14.50;7.57;;;;;;;;;;4431875;32;20321;-55
2022/04/18 08:40:44;;;;;;;9.50;5.57;;;;;;;;;;4431351;32;20295;-57
2022/04/18 08:43:10;;;;;;;15.77;8.87;;;;;;;;;;4431096;32;20363;-57
2022/04/18 08:45:37;;;;;;;5.37;3.30;;;;;;;;;;4431422;32;20235;-56
2022/04/18 08:53:34;;;;;;;5.87;3.70;;;;;;;;;;4430806;32;20312;-56
2022/04/18 08:55:59;;;;;;;6.70;4.80;;;;;;;;;;4431425;32;20248;-55
2022/04/18 08:58:29;;;;;;;12.47;7.37;;;;;;;;;;4430838;32;20287;-56
2022/04/18 09:00:56;;;;;;;7.50;4.67;;;;;;;;;;4430973;32;20205;-56
2022/04/18 09:03:22;;;;;;;7.17;4.60;;;;;;;;;;4431207;32;20232;-56
2022/04/18 09:05:48;;;;;;;15.73;8.60;;;;;;;;;;4430036;32;20676;-56
2022/04/18 09:08:13;;;;;;;15.60;9.17;;;;;;;;;;4430750;32;20225;-56
2022/04/18 09:10:41;;;;;;;14.27;8.07;;;;;;;;;;4431062;32;20394;-57
2022/04/18 09:13:14;;;;;;;14.63;7.73;;;;;;;;;;4430815;32;20587;-56
2022/04/18 09:15:40;;;;;;;5.07;3.87;;;;;;;;;;4431084;32;20307;-56
2022/04/18 09:18:13;;;;;;;4.53;2.70;;;;;;;;;;4431163;32;20271;-57
2022/04/18 09:20:47;;;;;;;9.07;5.23;;;;;;;;;;4430076;32;20352;-56
2022/04/18 09:23:23;;;;;;;3.63;2.17;;;;;;;;;;4429958;32;20668;-56
2022/04/18 09:26:08;;;;;;;11.23;5.80;;;;;;;;;;4430407;32;20668;-56
2022/04/18 09:28:40;;;;;;;6.13;2.97;;;;;;;;;;4430639;32;20251;-56
2022/04/18 09:31:07;;;;;;;13.33;7.60;;;;;;;;;;4430169;32;20213;-56
2022/04/18 09:33:43;;;;;;;12.83;7.43;;;;;;;;;;4416637;32;20255;-56
2022/04/18 09:36:15;;;;;;;17.10;8.60;;;;;;;;;;4430769;32;20246;-56
2022/04/18 09:38:48;;;;;;;7.47;3.97;;;;;;;;;;4430671;32;20276;-57
2022/04/18 09:41:25;;;;;;;15.67;8.23;;;;;;;;;;4430310;32;20277;-55
2022/04/18 09:43:53;;;;;;;17.13;9.93;;;;;;;;;;4431193;32;20238;-56
2022/04/18 09:46:19;;;;;;;3.23;2.40;;;;;;;;;;4430703;32;20232;-56
2022/04/18 09:48:46;;;;;;;8.57;5.60;;;;;;;;;;4430203;32;20306;-57
2022/04/18 09:51:22;;;;;;;12.03;8.17;;;;;;;;;;4430592;32;20209;-56
2022/04/18 09:53:47;;;;;;;7.10;4.57;;;;;;;;;;4430914;32;20325;-56
2022/04/18 09:56:17;;;;;;;7.80;4.47;;;;;;;;;;4430635;32;20307;-56
2022/04/18 09:58:43;;;;;;;13.57;7.17;;;;;;;;;;4430024;32;20866;-56
2022/04/18 10:01:10;;;;;;;3.20;2.73;;;;;;;;;;4430552;32;20283;-55
2022/04/18 10:03:37;;;;;;;2.73;2.43;;;;;;;;;;4416473;32;20249;-56
2022/04/18 10:06:04;;;;;;;2.30;1.87;;;;;;;;;;4429481;32;20437;-57
2022/04/18 10:08:31;;;;;;;1.80;1.63;;;;;;;;;;4430539;32;20705;-56
2022/04/18 10:10:59;;;;;;;9.70;3.63;;;;;;;;;;4416342;32;20312;-56
2022/04/18 10:13:26;;;;;;;4.80;2.97;;;;;;;;;;4430410;32;20285;-56
2022/04/18 10:15:53;;;;;;;6.77;4.27;;;;;;;;;;4430574;32;20645;-56
2022/04/18 10:18:19;;;;;;;13.53;8.60;;;;;;;;;;4416603;32;20316;-55
2022/04/18 10:21:06;;;;;;;6.20;4.90;;;;;;;;;;4430659;32;20276;-56
2022/04/18 10:24:07;;;;;;;1.70;1.50;;;;;;;;;;4430383;32;20625;-56
2022/04/18 10:27:10;;;;;;;2.00;1.43;;;;;;;;;;4416297;32;20369;-56
2022/04/18 10:29:50;;;;;;;2.53;1.87;;;;;;;;;;4430688;32;20209;-56
2022/04/18 10:32:21;;;;;;;5.37;4.20;;;;;;;;;;4430157;32;20664;-56
2022/04/18 10:34:51;;;;;;;6.13;4.00;;;;;;;;;;4429674;32;20238;-56
2022/04/18 10:37:16;;;;;;;3.83;2.90;;;;;;;;;;4416232;32;20263;-55
2022/04/18 10:39:42;;;;;;;5.10;3.13;;;;;;;;;;4430020;32;20744;-56
2022/04/18 10:42:29;;;;;;;6.23;3.77;;;;;;;;;;4430561;32;20567;-56
2022/04/18 10:44:58;;;;;;;2.37;2.00;;;;;;;;;;4432183;32;20236;-56
2022/04/18 10:47:24;;;;;;;2.37;1.57;;;;;;;;;;4432378;32;20231;-55
2022/04/18 10:50:16;;;;;;;3.43;1.73;;;;;;;;;;4432959;32;20209;-56
2022/04/18 10:52:42;;;;;;;4.10;2.33;;;;;;;;;;4432590;32;20228;-57
2022/04/18 10:55:19;;;;;;;3.60;2.23;;;;;;;;;;4433133;32;20322;-56
2022/04/18 10:58:08;;;;;;;1.83;1.67;;;;;;;;;;4433001;32;20244;-56
2022/04/18 11:00:51;;;;;;;2.57;1.90;;;;;;;;;;4433544;32;20375;-57
2022/04/18 11:03:35;;;;;;;2.40;2.03;;;;;;;;;;4433236;32;20240;-57
2022/04/18 11:06:02;;;;;;;2.93;2.10;;;;;;;;;;4433375;32;20208;-56
2022/04/18 11:08:29;;;;;;;6.87;3.70;;;;;;;;;;4433311;32;20307;-56
2022/04/18 11:11:32;;;;;;;4.77;2.87;;;;;;;;;;4418536;32;20258;-56
2022/04/18 11:13:59;;;;;;;5.77;2.70;;;;;;;;;;4406805;32;20879;-56
2022/04/18 11:16:25;;;;;;;4.33;3.03;;;;;;;;;;4432703;32;20216;-56
2022/04/18 11:19:09;;;;;;;5.20;2.53;;;;;;;;;;4432237;32;20220;-56
2022/04/18 11:24:39;;;;;;;10.80;4.73;;;;;;;;;;4432064;32;20258;-56
2022/04/18 11:27:12;;;;;;;3.93;3.10;;;;;;;;;;4433024;32;20283;-56
2022/04/18 11:29:43;;;;;;;4.33;2.70;;;;;;;;;;4418319;32;20349;-55
2022/04/18 11:32:09;;;;;;;4.33;2.43;;;;;;;;;;4431649;32;20279;-56
2022/04/18 11:34:36;;;;;;;5.23;3.77;;;;;;;;;;4419177;32;20632;-56
2022/04/18 11:37:04;;;;;;;2.87;1.80;;;;;;;;;;4418562;32;20293;-56
2022/04/18 11:39:49;;;;;;;5.40;3.00;;;;;;;;;;4432736;32;20302;-56
2022/04/18 11:42:19;;;;;;;4.17;2.90;;;;;;;;;;4432981;32;20220;-56
2022/04/18 11:44:46;;;;;;;5.73;3.50;;;;;;;;;;4418608;32;20229;-55
2022/04/18 11:47:19;;;;;;;5.70;2.77;;;;;;;;;;4432644;32;20213;-56
2022/04/18 11:49:45;;;;;;;5.63;3.63;;;;;;;;;;4432821;32;20253;-56
2022/04/18 11:52:18;;;;;;;6.23;3.80;;;;;;;;;;4432813;32;20272;-56
2022/04/18 11:55:03;;;;;;;10.03;3.27;;;;;;;;;;4432264;32;20621;-57
2022/04/18 11:57:30;;;;;;;5.63;3.47;;;;;;;;;;4419830;32;20495;-56
2022/04/18 11:59:56;;;;;;;4.63;2.83;;;;;;;;;;4432718;32;20285;-56
2022/04/18 12:08:00;;;;;;;4.47;2.70;;;;;;;;;;4432425;32;20364;-56
2022/04/18 12:10:28;;;;;;;4.60;3.57;;;;;;;;;;4432563;32;20255;-56
2022/04/18 12:12:55;;;;;;;4.57;2.87;;;;;;;;;;4418349;32;20241;-56
2022/04/18 12:15:25;;;;;;;5.43;2.00;;;;;;;;;;4432330;32;20213;-57
2022/04/18 12:17:53;;;;;;;4.13;2.57;;;;;;;;;;4432008;32;20247;-55
2022/04/18 12:20:21;;;;;;;3.50;2.23;;;;;;;;;;4418077;32;20753;-55
2022/04/18 12:22:58;;;;;;;8.53;5.33;;;;;;;;;;4432165;32;20323;-56
2022/04/18 12:25:26;;;;;;;10.80;7.10;;;;;;;;;;4417692;32;20271;-56
2022/04/18 12:27:52;;;;;;;6.67;4.63;;;;;;;;;;4431962;32;20229;-55
2022/04/18 12:30:18;;;;;;;4.37;3.00;;;;;;;;;;4418251;32;20402;-56
2022/04/18 12:32:47;;;;;;;6.70;4.83;;;;;;;;;;4432181;32;20285;-56
2022/04/18 12:35:34;;;;;;;5.63;4.07;;;;;;;;;;4418625;32;20320;-56
2022/04/18 12:38:02;;;;;;;6.17;3.73;;;;;;;;;;4432480;32;20289;-55
2022/04/18 12:40:33;;;;;;;4.27;3.17;;;;;;;;;;4432359;32;20303;-55
2022/04/18 12:43:07;;;;;;;11.63;5.90;;;;;;;;;;4431764;32;20292;-55
2022/04/18 12:45:48;;;;;;;11.73;4.63;;;;;;;;;;4417356;32;20374;-55
2022/04/18 12:48:18;;;;;;;5.20;3.47;;;;;;;;;;4416938;32;20590;-55
2022/04/18 12:50:44;;;;;;;3.43;2.63;;;;;;;;;;4417319;32;20234;-56
2022/04/18 12:53:10;;;;;;;3.60;2.80;;;;;;;;;;4417849;32;20232;-56
2022/04/18 12:55:35;;;;;;;3.33;2.17;;;;;;;;;;4431571;32;20273;-56
2022/04/18 12:58:01;;;;;;;2.23;1.90;;;;;;;;;;4430300;32;20248;-56
2022/04/18 13:00:37;;;;;;;3.30;1.73;;;;;;;;;;4431188;32;20283;-56
2022/04/18 13:03:06;;;;;;;7.13;2.90;;;;;;;;;;4431499;32;20372;-56
2022/04/18 13:05:33;;;;;;;5.07;2.30;;;;;;;;;;4431245;32;20252;-56
2022/04/18 13:08:06;;;;;;;3.37;2.40;;;;;;;;;;4430706;32;20573;-56
2022/04/18 13:10:34;;;;;;;9.00;4.27;;;;;;;;;;4431791;32;20250;-55
2022/04/18 13:13:06;;;;;;;11.40;3.83;;;;;;;;;;4431321;32;20716;-55
2022/04/18 13:15:32;;;;;;;5.43;3.77;;;;;;;;;;4431952;32;20261;-56
2022/04/18 13:18:08;;;;;;;6.10;2.87;;;;;;;;;;4417790;32;20350;-56
2022/04/18 13:20:34;;;;;;;3.43;2.07;;;;;;;;;;4417695;32;20247;-55
2022/04/18 13:23:02;;;;;;;7.00;4.57;;;;;;;;;;4432119;32;20259;-56
2022/04/18 13:25:28;;;;;;;5.57;3.83;;;;;;;;;;4431591;32;20243;-56
2022/04/18 13:27:55;;;;;;;7.23;3.10;;;;;;;;;;4417083;32;20331;-57
2022/04/18 13:30:24;;;;;;;3.23;1.90;;;;;;;;;;4431419;32;20272;-57
2022/04/18 13:32:51;;;;;;;2.97;2.60;;;;;;;;;;4430417;32;20398;-56
2022/04/18 13:35:18;;;;;;;3.93;2.40;;;;;;;;;;4427176;32;20274;-56
2022/04/18 13:37:47;;;;;;;9.97;5.77;;;;;;;;;;4429274;32;20328;-56
2022/04/18 13:40:14;;;;;;;9.10;4.90;;;;;;;;;;4429611;32;20760;-56
2022/04/18 13:42:41;;;;;;;6.27;3.07;;;;;;;;;;4430955;32;20323;-56
2022/04/18 13:45:08;;;;;;;6.53;4.13;;;;;;;;;;4431391;32;20267;-57
2022/04/18 13:47:36;;;;;;;5.50;3.80;;;;;;;;;;4431203;32;20232;-55
2022/04/18 13:50:01;;;;;;;7.03;3.13;;;;;;;;;;4431241;32;20270;-57
2022/04/18 13:52:27;;;;;;;7.70;5.37;;;;;;;;;;4431231;32;20228;-56
2022/04/18 13:54:52;;;;;;;5.03;2.80;;;;;;;;;;4430348;32;20359;-56
2022/04/18 13:57:17;;;;;;;12.10;3.03;;;;;;;;;;4431311;32;20417;-55
2022/04/18 13:59:43;;;;;;;9.70;4.47;;;;;;;;;;4430977;32;20287;-55
2022/04/18 14:02:08;;;;;;;5.43;3.97;;;;;;;;;;4430195;32;20334;-55
2022/04/18 14:04:34;;;;;;;19.57;9.03;;;;;;;;;;4431250;32;20382;-56
2022/04/18 14:06:59;;;;;;;26.13;10.70;;;;;;;;;;4431046;32;20270;-56
2022/04/18 14:09:25;;;;;;;27.07;14.10;;;;;;;;;;4431065;32;20350;-55
2022/04/18 14:11:50;;;;;;;24.43;12.03;;;;;;;;;;4430860;32;20239;-55
2022/04/18 14:20:20;;;;;;;7.17;4.70;;;;;;;;;;4431061;32;20534;-55
2022/04/18 14:22:30;;;;;;;16.07;9.00;;;;;;;;;;4430791;32;20308;-56
2022/04/18 14:24:56;;;;;;;17.93;10.67;;;;;;;;;;4416637;32;20308;-55
2022/04/18 14:27:22;;;;;;;5.43;3.90;;;;;;;;;;4430893;32;20204;-55
2022/04/18 14:29:48;;;;;;;10.10;4.20;;;;;;;;;;4417091;32;20812;-56
2022/04/18 14:32:14;;;;;;;23.97;11.03;;;;;;;;;;4430260;32;20636;-56
2022/04/18 14:34:41;;;;;;;15.00;7.03;;;;;;;;;;4430799;32;20692;-56
2022/04/18 14:37:06;;;;;;;23.27;9.33;;;;;;;;;;4416809;32;20232;-55
2022/04/18 14:39:32;;;;;;;28.33;14.20;;;;;;;;;;4430690;32;20318;-56
2022/04/18 14:41:58;;;;;;;5.80;3.50;;;;;;;;;;4430850;32;20339;-56
2022/04/18 14:44:24;;;;;;;9.13;5.17;;;;;;;;;;4430687;32;20232;-56
2022/04/18 14:46:49;;;;;;;12.83;8.73;;;;;;;;;;4430261;32;20601;-55
2022/04/18 14:49:15;;;;;;;12.90;7.50;;;;;;;;;;4416106;32;20353;-57
2022/04/18 14:51:40;;;;;;;12.73;7.43;;;;;;;;;;4430406;32;20312;-56
2022/04/18 14:54:06;;;;;;;17.67;9.37;;;;;;;;;;4430828;32;20233;-55
2022/04/18 14:56:31;;;;;;;18.43;10.50;;;;;;;;;;4430618;32;20204;-55
2022/04/18 14:58:57;;;;;;;29.33;13.87;;;;;;;;;;4430563;32;20244;-55
2022/04/18 15:01:22;;;;;;;10.13;5.60;;;;;;;;;;4430632;32;20259;-55
2022/04/18 15:03:48;;;;;;;10.50;5.90;;;;;;;;;;4443261;32;20345;-55
2022/04/18 15:06:15;;;;;;;8.70;5.80;;;;;;;;;;4434503;32;20254;-55
2022/04/18 15:08:41;;;;;;;9.63;5.83;;;;;;;;;;4418326;32;20345;-55
2022/04/18 15:11:07;;;;;;;10.53;5.40;;;;;;;;;;4431359;32;20217;-55
2022/04/18 15:13:37;;;;;;;12.23;7.10;;;;;;;;;;4431993;32;20695;-55
2022/04/18 15:16:06;;;;;;;7.70;3.20;;;;;;;;;;4430545;32;20252;-56